Halifax, Vermont
Current Conditions -  °F | °C
As of 9:52 PM on Friday 19 Dec 2014 (Local Time) from KAQW Reporting Station
Overcast Overcast  
Wind Chill: 17°   Ceiling: 2700
Heat Index: 26°   Visibility: 10mi
Dew Point: 19°   Wind: 9mph
Humidity: 75%   Direction: 260°W
Pressure: 30.15"   Gusts: NA
Location:  42.7575°N, 72.7347°W
Report Text: KAQW 200252Z AUTO 26008KT 10SM OVC027 M03/M07 A3015 RMK AO2 SLP218 T10331072 53013
Loading
Personal Weather Stations






























Interactive Weather Map New forecast layout! Learn more

10-Day Weather Forecast

Advertisements
Track Severe Weather on mobile